Hlavní strana
METAR-TAF:

METAR-TAF

Letiště :

Letiště Split

Split, Chorvatsko

zeměpisná šířka: 43-32N, zeměpisná délka: 016-18E, výška: 19 m

Aktuální stav počasí

Zpráva byla vytvořena před 13 minutami, v 17:00 UTC
Severovýchodní vítr 8 kt, proměnlivý mezi severoseverovýchodním a východním
Teplota 10°C
Vlhkost vzduchu 40%
Tlak 1021 hPa
Viditelnost 10 km a více
Žádná oblačnost pod 1500 m, nevyskytují se cumulonimby.

METAR: LDSP 171700Z 05008KT 020V090 CAVOK 10/M03 Q1021 NOSIG

Čas: 18:13 (17:13 UTC)

Předpověď počasí

Zpráva byla vytvořena před 5 hodinami a 48 minutami, v 11:25 UTC
Předpověď platná od 17 v 12 UTC do 18 v 12 UTC
Severovýchodní vítr 12 kt
Viditelnost 10 km a více
Žádná oblačnost pod 1500 m, nevyskytují se cumulonimby.
Pravděpodobnost 40% :
Dočasný
od 17 v 12 UTC do 18 v 06 UTC
Severovýchodní vítr 15 kt s nárazy do 25 kt
Změna
od 18 v 09 UTC do 18 v 11 UTC
Východní vítr 8 kt

TAF: LDSP 171125Z 1712/1812 05012KT CAVOK TX15/1712Z TN06/1805Z PROB40 TEMPO 1712/1806 04015G25KT BECMG 1809/1811 09008KT

Stav a předpovědi počasí z více než 4 000 letišť (zprávy METAR a TAF).

Červené a žluté tečky na mapě představují dostupné meteorologické stanice.

Když kurzor umístíte na tečku, zobrazí se název stanice.

Pak kliknutím zobrazíte stav a předpověď počasí.

Chcete-li změnit mapu, kliknutím na zelené tlačítko se znaménkem +mapu přiblížíte, kliknutím na zelené tlačítko se znaménkem – mapu oddálíte a kliknutím na zelené šipky přejdete na sousední mapy.


METAR-TAF: